Time;durP1;ratioP1;P1;durP2;ratioP2;P2;SDS_P1;SDS_P2;PMS_P1;PMS_P2;Temp;Humidity;BMP_temperature;BMP_pressure;BME280_temperature;BME280_humidity;BME280_pressure;Samples;Min_cycle;Max_cycle;Signal;HPM_P1;HPM_P2
2023/01/10 00:00:47;;;;;;;42.15;5.65;;;;;;;;;;4915940;29;20108;-72
2023/01/10 00:03:14;;;;;;;51.90;5.53;;;;;;;;;;4899511;29;20044;-72
2023/01/10 00:05:40;;;;;;;35.40;6.00;;;;;;;;;;4900061;29;20056;-72
2023/01/10 00:08:07;;;;;;;45.42;6.28;;;;;;;;;;4899637;29;20052;-72
2023/01/10 00:10:34;;;;;;;50.55;6.40;;;6.60;99.90;;;;;;4899580;29;20072;-73
2023/01/10 00:15:45;;;;;;;39.05;6.00;;;;;;;;;;4899447;29;20135;-73
2023/01/10 00:18:11;;;;;;;46.90;5.07;;;;;;;;;;4880868;29;20045;-73
2023/01/10 00:20:37;;;;;;;58.53;5.93;;;;;;;;;;4882359;29;20515;-73
2023/01/10 00:23:03;;;;;;;51.40;6.82;;;;;;;;;;4884146;29;20044;-73
2023/01/10 00:25:32;;;;;;;36.72;5.20;;;;;;;;;;4900945;29;20040;-73
2023/01/10 00:28:10;;;;;;;38.08;7.03;;;;;;;;;;4884240;29;20056;-73
2023/01/10 00:30:38;;;;;;;35.17;5.53;;;6.70;99.90;;;;;;4900966;29;20048;-73
2023/01/10 00:33:04;;;;;;;37.65;5.07;;;;;;;;;;4884372;29;20067;-72
2023/01/10 00:35:30;;;;;;;40.58;5.88;;;;;;;;;;4883958;29;20179;-74
2023/01/10 00:38:06;;;;;;;46.20;4.93;;;;;;;;;;4884135;29;20148;-72
2023/01/10 00:40:32;;;;;;;23.67;5.15;;;6.60;99.90;;;;;;4868277;29;20049;-72
2023/01/10 00:45:44;;;;;;;36.97;5.93;;;;;;;;;;4883821;29;20062;-73
2023/01/10 00:48:11;;;;;;;49.35;5.40;;;6.70;99.90;;;;;;4883940;29;20130;-73
2023/01/10 00:50:38;;;;;;;44.08;4.18;;;;;;;;;;4868265;29;20055;-73
2023/01/10 00:53:04;;;;;;;51.17;6.55;;;;;;;;;;4883852;29;20489;-73
2023/01/10 00:55:30;;;;;;;40.03;5.35;;;;;;;;;;4883942;29;20052;-73
2023/01/10 00:57:56;;;;;;;38.38;4.93;;;;;;;;;;4883485;29;20569;-73
2023/01/10 01:00:22;;;;;;;30.38;5.53;;;;;;;;;;4883853;29;20041;-73
2023/01/10 01:02:50;;;;;;;44.25;5.00;;;;;;;;;;4883412;29;20048;-72
2023/01/10 01:05:16;;;;;;;47.33;7.72;;;;;;;;;;4883961;29;20052;-72
2023/01/10 01:07:42;;;;;;;47.50;6.80;;;;;;;;;;4898963;29;20573;-72
2023/01/10 01:10:27;;;;;;;38.40;6.10;;;;;;;;;;4883448;29;20108;-72
2023/01/10 01:12:58;;;;;;;35.97;4.07;;;;;;;;;;4883313;29;20051;-72
2023/01/10 01:15:24;;;;;;;30.70;4.47;;;;;;;;;;4883383;29;20056;-72
2023/01/10 01:17:50;;;;;;;31.08;4.60;;;;;;;;;;4898199;29;20082;-72
2023/01/10 01:20:17;;;;;;;20.48;4.72;;;6.80;99.90;;;;;;4901955;29;20052;-73
2023/01/10 01:22:43;;;;;;;26.48;3.45;;;;;;;;;;4902047;29;20052;-72
2023/01/10 01:25:09;;;;;;;25.58;4.82;;;;;;;;;;4902226;29;20048;-72
2023/01/10 01:27:36;;;;;;;18.15;3.22;;;;;;;;;;4918803;29;20040;-73
2023/01/10 01:30:03;;;;;;;24.80;3.85;;;;;;;;;;4901685;29;20048;-72
2023/01/10 01:32:29;;;;;;;20.42;3.47;;;;;;;;;;4901252;29;20134;-72
2023/01/10 01:34:55;;;;;;;31.60;4.00;;;;;;;;;;4901666;29;20044;-72
2023/01/10 01:37:21;;;;;;;21.73;2.85;;;;;;;;;;4901549;29;20497;-72
2023/01/10 01:39:47;;;;;;;26.83;4.72;;;;;;;;;;4901572;29;20103;-72
2023/01/10 01:42:25;;;;;;;20.75;3.55;;;6.70;99.90;;;;;;4901481;29;20572;-73
2023/01/10 01:45:12;;;;;;;23.60;4.03;;;6.70;99.90;;;;;;4901641;29;20052;-72
2023/01/10 01:47:44;;;;;;;26.42;4.15;;;;;;;;;;4901323;29;20048;-73
2023/01/10 01:50:29;;;;;;;26.38;4.60;;;6.80;99.90;;;;;;4901681;29;20066;-72
2023/01/10 01:52:59;;;;;;;24.42;4.50;;;6.80;99.90;;;;;;4901277;29;20044;-73
2023/01/10 01:55:28;;;;;;;26.58;3.25;;;6.90;99.90;;;;;;4901240;29;20179;-72
2023/01/10 01:57:55;;;;;;;19.77;3.30;;;;;;;;;;4885926;29;20048;-73
2023/01/10 02:00:21;;;;;;;23.67;4.13;;;;;;;;;;4901154;29;20051;-73
2023/01/10 02:02:57;;;;;;;28.45;4.25;;;;;;;;;;4901081;29;20036;-73
2023/01/10 02:05:24;;;;;;;21.02;3.30;;;;;;;;;;4885482;29;20048;-73
2023/01/10 02:07:55;;;;;;;25.02;5.47;;;6.80;99.90;;;;;;4900933;29;20046;-73
2023/01/10 02:10:22;;;;;;;34.45;5.55;;;;;;;;;;4900937;29;20055;-72
2023/01/10 02:12:57;;;;;;;36.80;6.13;;;6.80;99.90;;;;;;4886353;29;20135;-72
2023/01/10 02:15:23;;;;;;;34.83;6.30;;;;;;;;;;4917882;29;20048;-72
2023/01/10 02:17:51;;;;;;;42.80;6.03;;;;;;;;;;4900733;29;20044;-72
2023/01/10 02:20:19;;;;;;;26.15;5.45;;;6.80;99.90;;;;;;4885442;29;20047;-72
2023/01/10 02:22:48;;;;;;;33.47;5.10;;;;;;;;;;4900959;29;20080;-71
2023/01/10 02:25:14;;;;;;;28.88;5.55;;;;;;;;;;4900840;29;20111;-71
2023/01/10 02:27:50;;;;;;;30.02;4.05;;;;;;;;;;4900608;29;20163;-71
2023/01/10 02:30:30;;;;;;;18.98;3.40;;;;;;;;;;4900564;29;20044;-72
2023/01/10 02:32:59;;;;;;;10.98;2.75;;;;;;;;;;4900652;29;20397;-72
2023/01/10 02:35:38;;;;;;;18.23;3.25;;;;;;;;;;4917507;29;20083;-71
2023/01/10 02:38:09;;;;;;;24.63;3.90;;;;;;;;;;4900600;29;20472;-71
2023/01/10 02:40:35;;;;;;;27.75;4.18;;;;;;;;;;4900776;29;20062;-72
2023/01/10 02:43:06;;;;;;;32.17;5.32;;;;;;;;;;4900347;29;20052;-72
2023/01/10 02:45:41;;;;;;;23.15;3.60;;;;;;;;;;4900344;29;20048;-72
2023/01/10 02:48:07;;;;;;;12.57;3.58;;;;;;;;;;4900339;29;20052;-72
2023/01/10 02:50:36;;;;;;;25.75;4.32;;;;;;;;;;4900540;29;20040;-72
2023/01/10 02:53:09;;;;;;;25.83;6.80;;;6.70;99.90;;;;;;4900465;29;20055;-72
2023/01/10 02:56:09;;;;;;;20.77;4.47;;;6.90;99.90;;;;;;4900468;29;20075;-72
2023/01/10 02:58:53;;;;;;;21.30;4.07;;;6.60;99.90;;;;;;4884576;29;20044;-72
2023/01/10 03:01:44;;;;;;;30.02;4.53;;;6.80;99.90;;;;;;4899877;29;20520;-73
2023/01/10 03:04:47;;;;;;;29.20;4.45;;;6.70;99.90;;;;;;4884435;29;20056;-72
2023/01/10 03:07:13;;;;;;;32.55;4.38;;;;;;;;;;4899954;29;20629;-72
2023/01/10 03:09:39;;;;;;;25.45;3.95;;;;;;;;;;4899968;29;20100;-72
2023/01/10 03:12:27;;;;;;;25.63;4.95;;;6.60;99.90;;;;;;4900144;29;20048;-72
2023/01/10 03:14:56;;;;;;;29.35;5.68;;;6.70;99.90;;;;;;4884706;29;20051;-72
2023/01/10 03:17:23;;;;;;;37.25;5.32;;;6.60;99.90;;;;;;4899656;29;20107;-72
2023/01/10 03:19:53;;;;;;;36.63;4.97;;;6.50;99.90;;;;;;4899930;29;20123;-72
2023/01/10 03:22:19;;;;;;;47.42;5.20;;;;;;;;;;4899989;29;20090;-72
2023/01/10 03:24:48;;;;;;;47.10;6.22;;;6.60;99.90;;;;;;4900041;29;20103;-72
2023/01/10 03:27:14;;;;;;;42.85;6.63;;;;;;;;;;4884622;29;20056;-72
2023/01/10 03:29:46;;;;;;;39.67;6.13;;;;;;;;;;4900079;29;20040;-72
2023/01/10 03:32:14;;;;;;;46.03;6.00;;;;;;;;;;4899824;29;20485;-72
2023/01/10 03:34:40;;;;;;;44.22;6.90;;;;;;;;;;4900448;29;20366;-72
2023/01/10 03:37:25;;;;;;;46.35;5.47;;;6.60;99.90;;;;;;4899895;29;20044;-72
2023/01/10 03:39:54;;;;;;;43.88;5.72;;;;;;;;;;4899888;29;20063;-72
2023/01/10 03:42:23;;;;;;;43.83;6.63;;;;;;;;;;4899767;29;20076;-72
2023/01/10 03:44:53;;;;;;;47.67;5.47;;;;;;;;;;4916738;29;20188;-72
2023/01/10 03:47:35;;;;;;;34.83;5.13;;;;;;;;;;4884001;29;20404;-72
2023/01/10 03:50:34;;;;;;;37.72;7.18;;;6.60;99.90;;;;;;4899609;29;20417;-72
2023/01/10 03:53:00;;;;;;;34.38;5.35;;;;;;;;;;4849582;29;20135;-72
2023/01/10 03:55:27;;;;;;;52.42;7.53;;;;;;;;;;4885184;29;20493;-71
2023/01/10 03:57:54;;;;;;;46.30;6.90;;;;;;;;;;4888045;29;20066;-71
2023/01/10 04:00:20;;;;;;;42.05;5.85;;;;;;;;;;4903554;29;20059;-71
2023/01/10 04:02:46;;;;;;;61.03;7.00;;;;;;;;;;4903308;29;20051;-71
2023/01/10 04:05:12;;;;;;;32.75;5.50;;;;;;;;;;4920132;29;20044;-71
2023/01/10 04:07:38;;;;;;;37.72;6.07;;;;;;;;;;4903181;29;20085;-72
2023/01/10 04:10:05;;;;;;;48.35;6.72;;;;;;;;;;4902978;29;20071;-72
2023/01/10 04:12:31;;;;;;;46.50;6.20;;;;;;;;;;4903493;29;20040;-71
2023/01/10 04:14:57;;;;;;;46.88;5.88;;;;;;;;;;4903088;29;20088;-72
2023/01/10 04:17:23;;;;;;;56.88;7.18;;;;;;;;;;4920228;29;20346;-72
2023/01/10 04:19:49;;;;;;;32.67;5.32;;;;;;;;;;4919858;29;20095;-71
2023/01/10 04:22:15;;;;;;;37.50;5.95;;;;;;;;;;4903012;29;20050;-72
2023/01/10 04:24:43;;;;;;;36.65;4.75;;;;;;;;;;4903187;29;20040;-72
2023/01/10 04:27:09;;;;;;;35.95;5.35;;;;;;;;;;4902837;29;20108;-71
2023/01/10 04:29:35;;;;;;;35.67;4.95;;;;;;;;;;4902920;29;20123;-72
2023/01/10 04:32:01;;;;;;;34.97;5.25;;;;;;;;;;4902734;29;20047;-72
2023/01/10 04:34:27;;;;;;;29.95;4.30;;;;;;;;;;4902962;29;20040;-72
2023/01/10 04:36:53;;;;;;;49.97;5.55;;;;;;;;;;4902781;29;20055;-72
2023/01/10 04:39:19;;;;;;;35.95;5.68;;;;;;;;;;4902620;29;20048;-76
2023/01/10 04:41:45;;;;;;;29.90;6.57;;;;;;;;;;4902891;29;20051;-76
2023/01/10 04:44:12;;;;;;;39.40;6.05;;;;;;;;;;4902630;29;20044;-76
2023/01/10 04:46:38;;;;;;;38.95;6.10;;;;;;;;;;4902630;29;20106;-76
2023/01/10 04:49:04;;;;;;;44.92;5.63;;;;;;;;;;4902392;29;20040;-76
2023/01/10 04:51:31;;;;;;;44.88;6.20;;;;;;;;;;4902601;29;20052;-76
2023/01/10 04:53:57;;;;;;;44.78;6.35;;;;;;;;;;4902475;29;20044;-76
2023/01/10 04:56:23;;;;;;;53.28;8.02;;;;;;;;;;4902460;29;20540;-75
2023/01/10 04:58:50;;;;;;;48.22;6.53;;;;;;;;;;4886839;29;20052;-75
2023/01/10 05:01:19;;;;;;;59.28;6.43;;;6.90;99.90;;;;;;4902177;29;20044;-76
2023/01/10 05:03:47;;;;;;;45.25;6.25;;;;;;;;;;4902084;29;20058;-76
2023/01/10 05:06:13;;;;;;;42.17;5.47;;;;;;;;;;4901906;29;20404;-75
2023/01/10 05:08:40;;;;;;;47.55;5.53;;;;;;;;;;4917149;29;20519;-75
2023/01/10 05:11:06;;;;;;;40.88;4.80;;;;;;;;;;4902371;29;20056;-76
2023/01/10 05:13:32;;;;;;;32.25;4.75;;;;;;;;;;4901965;29;20084;-76
2023/01/10 05:15:59;;;;;;;41.60;5.95;;;;;;;;;;4902092;29;20063;-76
2023/01/10 05:18:26;;;;;;;16.67;3.10;;;;;;;;;;4918827;29;20043;-76
2023/01/10 05:20:52;;;;;;;26.55;3.55;;;;;;;;;;4886226;29;20496;-76
2023/01/10 05:23:18;;;;;;;15.55;2.75;;;;;;;;;;4901787;29;20043;-76
2023/01/10 05:25:44;;;;;;;16.92;3.67;;;;;;;;;;4901953;29;20111;-75
2023/01/10 05:28:10;;;;;;;30.55;3.75;;;;;;;;;;4902107;29;20389;-76
2023/01/10 05:30:36;;;;;;;19.58;3.55;;;;;;;;;;4902041;29;20043;-76
2023/01/10 05:33:05;;;;;;;22.85;2.80;;;;;;;;;;4901773;29;20068;-72
2023/01/10 05:35:31;;;;;;;21.13;3.53;;;;;;;;;;4886155;29;20044;-72
2023/01/10 05:37:57;;;;;;;23.85;3.40;;;;;;;;;;4886101;29;20481;-72
2023/01/10 05:40:23;;;;;;;40.33;4.20;;;;;;;;;;4901879;29;20434;-72
2023/01/10 05:42:50;;;;;;;24.13;3.55;;;;;;;;;;4901947;29;20120;-72
2023/01/10 05:45:16;;;;;;;31.35;5.13;;;;;;;;;;4901320;29;20048;-72
2023/01/10 05:47:42;;;;;;;23.52;4.95;;;;;;;;;;4901627;29;20187;-71
2023/01/10 05:50:09;;;;;;;36.65;5.75;;;;;;;;;;4885661;29;20048;-72
2023/01/10 05:52:35;;;;;;;51.95;6.45;;;;;;;;;;4886091;29;20071;-71
2023/01/10 05:55:01;;;;;;;39.72;4.82;;;;;;;;;;4901661;29;20114;-71
2023/01/10 05:57:27;;;;;;;37.95;6.93;;;;;;;;;;4901366;29;20196;-71
2023/01/10 05:59:53;;;;;;;32.67;5.20;;;;;;;;;;4900794;29;20060;-71
2023/01/10 06:02:19;;;;;;;46.00;6.45;;;;;;;;;;4900881;29;20048;-71
2023/01/10 06:04:45;;;;;;;29.23;5.10;;;;;;;;;;4901170;29;20052;-71
2023/01/10 06:07:11;;;;;;;45.50;6.68;;;;;;;;;;4901072;29;20044;-72
2023/01/10 06:09:41;;;;;;;45.38;5.55;;;;;;;;;;4917802;29;20063;-72
2023/01/10 06:12:07;;;;;;;36.40;5.50;;;;;;;;;;4900868;29;20072;-71
2023/01/10 06:14:33;;;;;;;52.78;6.25;;;;;;;;;;4883279;29;20052;-71
2023/01/10 06:16:59;;;;;;;28.02;4.88;;;;;;;;;;4885326;29;20121;-72
2023/01/10 06:19:25;;;;;;;23.42;4.63;;;;;;;;;;4885177;29;20059;-72
2023/01/10 06:21:51;;;;;;;29.85;4.68;;;;;;;;;;4900782;29;20103;-72
2023/01/10 06:24:17;;;;;;;29.98;5.45;;;;;;;;;;4885666;29;20051;-72
2023/01/10 06:26:43;;;;;;;37.38;5.05;;;;;;;;;;4900783;29;20107;-72
2023/01/10 06:29:09;;;;;;;35.97;5.18;;;;;;;;;;4900963;29;20043;-72
2023/01/10 06:31:35;;;;;;;42.10;6.72;;;;;;;;;;4901045;29;20096;-72
2023/01/10 06:34:01;;;;;;;35.83;6.28;;;;;;;;;;4885471;29;20040;-73
2023/01/10 06:36:28;;;;;;;45.50;6.28;;;;;;;;;;4900723;29;20039;-73
2023/01/10 06:38:54;;;;;;;32.13;6.63;;;;;;;;;;4900585;29;20052;-72
2023/01/10 06:41:20;;;;;;;35.95;8.25;;;;;;;;;;4900820;29;20441;-72
2023/01/10 06:43:46;;;;;;;46.67;7.00;;;;;;;;;;4917133;29;20107;-72
2023/01/10 06:46:15;;;;;;;50.35;6.40;;;;;;;;;;4900241;29;20400;-72
2023/01/10 06:48:42;;;;;;;49.00;5.60;;;;;;;;;;4917442;29;20044;-72
2023/01/10 06:51:09;;;;;;;65.57;6.82;;;;;;;;;;4884963;29;20044;-72
2023/01/10 06:53:35;;;;;;;47.97;6.75;;;;;;;;;;4884633;29;20048;-72
2023/01/10 06:56:01;;;;;;;56.20;7.28;;;;;;;;;;4900167;29;20501;-72
2023/01/10 06:58:28;;;;;;;50.47;6.07;;;;;;;;;;4900179;29;20083;-72
2023/01/10 07:00:54;;;;;;;72.03;8.25;;;;;;;;;;4900448;29;20076;-72
2023/01/10 07:03:20;;;;;;;44.08;6.88;;;;;;;;;;4900060;29;20504;-72
2023/01/10 07:05:46;;;;;;;55.92;7.25;;;;;;;;;;4900354;29;20183;-71
2023/01/10 07:08:13;;;;;;;46.97;5.78;;;;;;;;;;4900164;29;20035;-71
2023/01/10 07:10:42;;;;;;;48.30;5.97;;;;;;;;;;4900266;29;20052;-72
2023/01/10 07:13:09;;;;;;;44.03;7.35;;;;;;;;;;4899869;29;20071;-72
2023/01/10 07:15:35;;;;;;;46.92;6.10;;;;;;;;;;4900103;29;20052;-71
2023/01/10 07:18:01;;;;;;;58.50;6.82;;;;;;;;;;4900446;29;20119;-72
2023/01/10 07:20:28;;;;;;;59.38;7.82;;;;;;;;;;4916992;29;20040;-77
2023/01/10 07:22:55;;;;;;;49.30;8.32;;;;;;;;;;4899914;29;20465;-77
2023/01/10 07:25:21;;;;;;;57.35;7.75;;;;;;;;;;4890643;29;20056;-77
2023/01/10 07:27:47;;;;;;;70.50;9.77;;;;;;;;;;4895178;29;20107;-77
2023/01/10 07:30:13;;;;;;;52.33;7.00;;;;;;;;;;4900683;29;20461;-77
2023/01/10 07:32:39;;;;;;;69.93;7.05;;;;;;;;;;4903665;29;20051;-76
2023/01/10 07:35:05;;;;;;;37.10;5.97;;;;;;;;;;4904128;29;20183;-77
2023/01/10 07:37:31;;;;;;;45.50;6.22;;;;;;;;;;4904405;29;20048;-76
2023/01/10 07:39:57;;;;;;;51.40;6.57;;;;;;;;;;4904471;29;20043;-77
2023/01/10 07:42:24;;;;;;;55.63;8.88;;;;;;;;;;4904418;29;20055;-76
2023/01/10 07:44:50;;;;;;;59.05;7.90;;;;;;;;;;4920658;29;20485;-77
2023/01/10 07:47:16;;;;;;;43.28;7.18;;;;;;;;;;4903982;29;20040;-76
2023/01/10 07:49:42;;;;;;;39.70;6.65;;;;;;;;;;4888118;29;20048;-77
2023/01/10 07:52:08;;;;;;;44.88;6.40;;;;;;;;;;4902942;29;20060;-76
2023/01/10 07:54:35;;;;;;;45.10;8.93;;;;;;;;;;4902002;29;20075;-77
2023/01/10 07:57:01;;;;;;;46.60;6.78;;;6.80;99.90;;;;;;4887599;29;20099;-77
2023/01/10 07:59:29;;;;;;;49.00;6.18;;;;;;;;;;4899114;29;20485;-76
2023/01/10 08:01:55;;;;;;;61.58;7.57;;;;;;;;;;4898632;29;20036;-76
2023/01/10 08:04:21;;;;;;;47.00;6.55;;;;;;;;;;4902417;29;20651;-77
2023/01/10 08:06:47;;;;;;;45.72;7.05;;;;;;;;;;4902271;29;20044;-77
2023/01/10 08:09:14;;;;;;;45.50;6.75;;;;;;;;;;4902982;29;20147;-76
2023/01/10 08:11:41;;;;;;;39.88;7.57;;;;;;;;;;4917981;29;20102;-76
2023/01/10 08:14:07;;;;;;;48.97;7.57;;;;;;;;;;4903092;29;20044;-76
2023/01/10 08:16:33;;;;;;;43.58;8.00;;;;;;;;;;4887495;29;20048;-76
2023/01/10 08:18:59;;;;;;;46.65;6.65;;;;;;;;;;4887642;29;20043;-75
2023/01/10 08:21:25;;;;;;;39.75;7.45;;;;;;;;;;4902822;29;20052;-76
2023/01/10 08:23:51;;;;;;;54.92;7.85;;;;;;;;;;4902861;29;20055;-76
2023/01/10 08:26:18;;;;;;;40.88;7.15;;;;;;;;;;4902863;29;20044;-76
2023/01/10 08:28:44;;;;;;;46.25;6.95;;;;;;;;;;4903361;29;20512;-76
2023/01/10 08:31:10;;;;;;;40.08;6.68;;;;;;;;;;4902877;29;20040;-76
2023/01/10 08:33:37;;;;;;;42.13;7.22;;;6.40;99.90;;;;;;4887187;29;20477;-76
2023/01/10 08:36:03;;;;;;;51.10;7.05;;;;;;;;;;4919650;29;20056;-76
2023/01/10 08:38:29;;;;;;;51.20;6.50;;;;;;;;;;4902627;29;20130;-76
2023/01/10 08:40:57;;;;;;;49.28;7.60;;;;;;;;;;4902673;29;20087;-77
2023/01/10 08:43:23;;;;;;;50.40;6.35;;;;;;;;;;4888790;29;20049;-76
2023/01/10 08:45:49;;;;;;;39.58;6.57;;;;;;;;;;4922310;29;20075;-76
2023/01/10 08:48:15;;;;;;;31.75;6.93;;;;;;;;;;4903716;29;20051;-76
2023/01/10 08:50:41;;;;;;;39.72;7.07;;;;;;;;;;4920949;29;20032;-76
2023/01/10 08:53:07;;;;;;;53.88;7.50;;;;;;;;;;4902673;29;20123;-76
2023/01/10 08:55:36;;;;;;;39.90;7.40;;;;;;;;;;4886649;29;20075;-76
2023/01/10 08:58:03;;;;;;;49.47;8.90;;;;;;;;;;4919357;29;20096;-76
2023/01/10 09:00:29;;;;;;;36.65;7.57;;;;;;;;;;4902248;29;20051;-76
2023/01/10 09:02:55;;;;;;;42.20;8.43;;;;;;;;;;4902116;29;20153;-76
2023/01/10 09:05:21;;;;;;;48.22;8.57;;;;;;;;;;4902277;29;20044;-76
2023/01/10 09:07:47;;;;;;;41.17;7.28;;;;;;;;;;4887139;29;20044;-76
2023/01/10 09:10:13;;;;;;;45.00;8.45;;;;;;;;;;4901999;29;20060;-76
2023/01/10 09:12:55;;;;;;;48.28;9.40;;;;;;;;;;4886439;29;20044;-76
2023/01/10 09:15:29;;;;;;;41.67;6.53;;;6.60;99.90;;;;;;4902075;29;20050;-76
2023/01/10 09:17:56;;;;;;;42.33;6.68;;;;;;;;;;4902203;29;20520;-76
2023/01/10 09:20:23;;;;;;;33.38;6.65;;;;;;;;;;4901942;29;20047;-76
2023/01/10 09:22:49;;;;;;;35.47;5.80;;;;;;;;;;4901768;29;20054;-75
2023/01/10 09:25:15;;;;;;;48.70;7.10;;;;;;;;;;4901910;29;20046;-76
2023/01/10 09:27:41;;;;;;;45.65;7.05;;;;;;;;;;4900358;29;20119;-76
2023/01/10 09:30:08;;;;;;;47.13;7.18;;;;;;;;;;4901994;29;20039;-76
2023/01/10 09:32:34;;;;;;;38.47;6.10;;;;;;;;;;4901671;29;20036;-76
2023/01/10 09:35:00;;;;;;;35.00;5.90;;;;;;;;;;4886163;29;20496;-76
2023/01/10 09:37:26;;;;;;;53.63;7.63;;;;;;;;;;4901702;29;20066;-76
2023/01/10 09:39:52;;;;;;;47.08;7.35;;;;;;;;;;4901615;29;20485;-76
2023/01/10 09:42:18;;;;;;;36.33;5.90;;;;;;;;;;4918482;29;20083;-76
2023/01/10 09:44:44;;;;;;;39.15;6.53;;;;;;;;;;4901334;29;20095;-76
2023/01/10 09:47:30;;;;;;;50.58;8.68;;;;;;;;;;4901098;29;20126;-76
2023/01/10 09:50:07;;;;;;;46.38;7.50;;;6.90;99.90;;;;;;4901266;29;20107;-72
2023/01/10 09:52:38;;;;;;;36.78;6.47;;;7.00;99.90;;;;;;4900648;29;20040;-72
2023/01/10 09:55:37;;;;;;;42.10;8.98;;;6.90;99.90;;;;;;4901455;29;20040;-71
2023/01/10 09:58:15;;;;;;;39.17;7.68;;;6.90;99.90;;;;;;4866320;29;20052;-71
2023/01/10 10:00:53;;;;;;;32.45;6.40;;;;;;;;;;4901449;29;20052;-71
2023/01/10 10:03:29;;;;;;;44.28;6.68;;;;;;;;;;4918201;29;20083;-71
2023/01/10 10:05:56;;;;;;;54.30;6.38;;;;;;;;;;4901006;29;20556;-71
2023/01/10 10:08:22;;;;;;;55.15;7.00;;;;;;;;;;4900780;29;20068;-71
2023/01/10 10:11:09;;;;;;;49.50;7.05;;;7.00;99.90;;;;;;4900916;29;20051;-71
2023/01/10 10:13:41;;;;;;;48.22;7.03;;;;;;;;;;4901138;29;20107;-72
2023/01/10 10:16:11;;;;;;;53.35;7.25;;;;;;;;;;4885536;29;20074;-71
2023/01/10 10:18:57;;;;;;;36.78;6.50;;;;;;;;;;4900754;29;20132;-71
2023/01/10 10:21:28;;;;;;;34.63;5.30;;;;;;;;;;4900563;29;20561;-71
2023/01/10 10:24:00;;;;;;;36.95;6.13;;;;;;;;;;4900577;29;20055;-71
2023/01/10 10:26:26;;;;;;;37.10;6.57;;;;;;;;;;4900544;29;20551;-71
2023/01/10 10:29:24;;;;;;;41.40;5.85;;;7.30;99.90;;;;;;4900426;29;20469;-71
2023/01/10 10:32:18;;;;;;;41.75;5.97;;;;;;;;;;4900733;29;20465;-71
2023/01/10 10:34:49;;;;;;;55.05;7.72;;;;;;;;;;4913400;29;20044;-71
2023/01/10 10:37:31;;;;;;;56.63;6.53;;;7.10;99.90;;;;;;4916572;29;20059;-72
2023/01/10 10:40:05;;;;;;;42.95;6.40;;;7.00;99.90;;;;;;4916225;29;20048;-72
2023/01/10 10:42:35;;;;;;;42.15;6.22;;;7.00;99.90;;;;;;4916290;29;20064;-72
2023/01/10 10:45:20;;;;;;;50.80;6.90;;;;;;;;;;4916164;29;20072;-71
2023/01/10 10:47:54;;;;;;;46.60;6.05;;;7.00;99.90;;;;;;4900157;29;20044;-71
2023/01/10 10:50:27;;;;;;;44.90;5.78;;;;;;;;;;4900495;29;20044;-71
2023/01/10 10:52:53;;;;;;;45.60;6.43;;;;;;;;;;4900181;29;20047;-71
2023/01/10 10:55:22;;;;;;;54.95;7.57;;;;;;;;;;4900790;29;20195;-71
2023/01/10 10:57:48;;;;;;;49.00;7.15;;;7.10;99.90;;;;;;4900210;29;20388;-71
2023/01/10 11:00:19;;;;;;;58.78;7.10;;;7.10;99.90;;;;;;4900223;29;20496;-71
2023/01/10 11:02:51;;;;;;;47.40;6.60;;;7.00;99.90;;;;;;4900349;29;20070;-71
2023/01/10 11:05:20;;;;;;;69.63;6.03;;;;;;;;;;4915347;29;20047;-71
2023/01/10 11:07:46;;;;;;;64.72;7.85;;;;;;;;;;4900069;29;20457;-71
2023/01/10 11:12:49;;;;;;;68.38;7.97;;;;;;;;;;4900146;29;20138;-71
2023/01/10 11:15:37;;;;;;;53.28;6.22;;;;;;;;;;4901029;29;20124;-71
2023/01/10 11:18:12;;;;;;;75.47;7.57;;;7.20;99.90;;;;;;4899762;29;20397;-71
2023/01/10 11:21:06;;;;;;;52.90;7.80;;;7.10;99.90;;;;;;4916006;29;20045;-72
2023/01/10 11:23:52;;;;;;;60.28;7.85;;;;;;;;;;4883958;29;20063;-72
2023/01/10 11:26:27;;;;;;;49.58;7.00;;;;;;;;;;4884193;29;20127;-71
2023/01/10 11:29:08;;;;;;;68.95;8.30;;;7.20;99.90;;;;;;4899414;29;20560;-72
2023/01/10 11:31:35;;;;;;;66.43;9.25;;;7.10;99.90;;;;;;4900036;29;20040;-71
2023/01/10 11:34:05;;;;;;;50.83;6.65;;;;;;;;;;4899862;29;20389;-71
2023/01/10 11:36:51;;;;;;;48.58;7.82;;;;;;;;;;4900215;29;20157;-72
2023/01/10 11:39:17;;;;;;;58.13;7.85;;;;;;;;;;4899596;29;20087;-72
2023/01/10 11:41:43;;;;;;;53.13;8.00;;;;;;;;;;4899604;29;20405;-72
2023/01/10 11:44:16;;;;;;;64.25;8.80;;;;;;;;;;4899588;29;20067;-72
2023/01/10 11:46:45;;;;;;;;;;;7.30;99.90;;;;;;4884506;29;20485;-72
2023/01/10 11:49:18;;;;;;;47.38;6.93;;;7.20;99.90;;;;;;4916486;29;19935;-72
2023/01/10 11:51:55;;;;;;;50.45;9.77;;;7.10;99.90;;;;;;4899522;29;20068;-76
2023/01/10 11:54:26;;;;;;;66.88;8.73;;;7.20;99.90;;;;;;4899501;29;20040;-76
2023/01/10 11:56:56;;;;;;;48.63;8.88;;;7.10;99.90;;;;;;4899557;29;20076;-76
2023/01/10 11:59:22;;;;;;;55.05;8.13;;;;;;;;;;4899585;29;20048;-76
2023/01/10 12:02:29;;;;;;;54.97;7.05;;;7.00;99.90;;;;;;4899689;29;20131;-76
2023/01/10 12:04:56;;;;;;;63.03;9.73;;;;;;;;;;4881674;29;20493;-77
2023/01/10 12:07:22;;;;;;;72.40;7.80;;;;;;;;;;4916687;29;20055;-78
2023/01/10 12:10:01;;;;;;;43.67;6.20;;;7.20;99.90;;;;;;4899396;29;20056;-78
2023/01/10 12:12:28;;;;;;;53.63;7.88;;;;;;;;;;4899846;29;20128;-77
2023/01/10 12:14:56;;;;;;;46.17;6.13;;;7.10;99.90;;;;;;4899394;29;20040;-77
2023/01/10 12:17:25;;;;;;;56.80;8.57;;;;;;;;;;4901971;29;20048;-77
2023/01/10 12:19:52;;;;;;;59.38;7.85;;;7.10;99.90;;;;;;4902901;29;20047;-77
2023/01/10 12:22:21;;;;;;;54.45;7.80;;;;;;;;;;4903349;29;20438;-77
2023/01/10 12:24:48;;;;;;;71.03;8.90;;;;;;;;;;4902753;29;20481;-77
2023/01/10 12:27:16;;;;;;;54.85;9.25;;;;;;;;;;4886970;29;20044;-73
2023/01/10 12:29:51;;;;;;;55.88;8.45;;;6.90;99.90;;;;;;4902860;29;20044;-73
2023/01/10 12:32:35;;;;;;;44.97;9.82;;;7.20;99.90;;;;;;4902836;29;20538;-72
2023/01/10 12:35:05;;;;;;;55.47;11.18;;;7.30;99.90;;;;;;4887166;29;20044;-72
2023/01/10 12:37:44;;;;;;;65.63;9.13;;;7.20;99.90;;;;;;4918553;29;20040;-73
2023/01/10 12:40:10;;;;;;;56.47;10.95;;;;;;;;;;4902833;29;20436;-73
2023/01/10 12:45:57;;;;;;;55.80;12.40;;;7.10;99.90;;;;;;4896298;29;20449;-72
2023/01/10 12:48:33;;;;;;;50.75;9.80;;;;;;;;;;4902572;29;20370;-73
2023/01/10 12:51:02;;;;;;;59.40;8.68;;;;;;;;;;4902887;29;20481;-72
2023/01/10 12:54:00;;;;;;;47.38;8.60;;;7.20;99.90;;;;;;4902507;29;20114;-72
2023/01/10 12:56:27;;;;;;;60.10;12.18;;;7.00;99.90;;;;;;4876147;29;20056;-72
2023/01/10 12:59:01;;;;;;;63.80;10.27;;;7.10;99.90;;;;;;4886426;29;20048;-73
2023/01/10 13:01:29;;;;;;;41.47;9.75;;;;;;;;;;4902284;29;20124;-72
2023/01/10 13:03:57;;;;;;;58.88;12.23;;;;;;;;;;4901956;29;20048;-72
2023/01/10 13:06:31;;;;;;;64.78;10.48;;;;;;;;;;4886429;29;20489;-72
2023/01/10 13:09:02;;;;;;;57.05;13.65;;;6.90;99.90;;;;;;4901757;29;20060;-72
2023/01/10 13:11:34;;;;;;;69.57;10.73;;;6.90;99.90;;;;;;4919088;29;20040;-72
2023/01/10 13:14:02;;;;;;;61.47;11.98;;;;;;;;;;4901873;29;20040;-72
2023/01/10 13:16:28;;;;;;;54.08;10.50;;;;;;;;;;4886372;29;20052;-72
2023/01/10 13:19:01;;;;;;;68.28;11.50;;;7.00;99.90;;;;;;4901922;29;20040;-72
2023/01/10 13:21:28;;;;;;;55.13;9.93;;;;;;;;;;4901974;29;20052;-71
2023/01/10 13:24:00;;;;;;;58.47;10.23;;;6.60;99.90;;;;;;4902090;29;20063;-72
2023/01/10 13:26:27;;;;;;;72.57;11.27;;;;;;;;;;4901899;29;20075;-72
2023/01/10 13:28:57;;;;;;;55.63;9.50;;;;;;;;;;4900583;29;20063;-72
2023/01/10 13:31:30;;;;;;;62.00;9.40;;;6.80;99.90;;;;;;4918856;29;20393;-72
2023/01/10 13:34:06;;;;;;;56.42;8.90;;;6.80;99.90;;;;;;4901338;29;20095;-72
2023/01/10 13:36:38;;;;;;;69.97;9.50;;;6.70;99.90;;;;;;4901674;29;20131;-72
2023/01/10 13:39:10;;;;;;;55.58;8.82;;;6.80;99.90;;;;;;4901440;29;20048;-72
2023/01/10 13:44:58;;;;;;;50.58;8.60;;;;;;;;;;4901634;29;20500;-71
2023/01/10 13:47:49;;;;;;;60.67;8.38;;;;;;;;;;4901424;29;20086;-72
2023/01/10 13:50:24;;;;;;;39.25;7.80;;;;;;;;;;4901224;29;20051;-72
2023/01/10 13:53:16;;;;;;;58.53;8.05;;;6.70;99.90;;;;;;4885599;29;20409;-72
2023/01/10 13:55:42;;;;;;;46.55;6.65;;;;;;;;;;4857805;29;20079;-72
2023/01/10 13:58:19;;;;;;;61.17;10.00;;;;;;;;;;4890604;29;20040;-72
2023/01/10 14:03:41;;;;;;;53.40;8.35;;;;;;;;;;4901190;29;20036;-72
2023/01/10 14:06:29;;;;;;;46.08;6.53;;;6.80;99.90;;;;;;4900759;29;20048;-72
2023/01/10 14:08:56;;;;;;;72.32;8.02;;;;;;;;;;4900815;29;20138;-72
2023/01/10 14:11:25;;;;;;;50.65;7.45;;;;;;;;;;4900916;29;20052;-72
2023/01/10 14:13:59;;;;;;;52.67;7.13;;;;;;;;;;4901063;29;20044;-72
2023/01/10 14:16:29;;;;;;;49.08;6.82;;;6.80;99.90;;;;;;4901201;29;20111;-72
2023/01/10 14:18:55;;;;;;;42.15;7.15;;;;;;;;;;4900764;29;20131;-72
2023/01/10 14:21:24;;;;;;;38.15;5.95;;;;;;;;;;4917666;29;20048;-72
2023/01/10 14:23:51;;;;;;;44.65;5.63;;;;;;;;;;4885409;29;20040;-72
2023/01/10 14:26:33;;;;;;;40.92;6.15;;;;;;;;;;4882063;29;20063;-72
2023/01/10 14:29:04;;;;;;;51.20;7.05;;;6.50;99.90;;;;;;4880982;29;20044;-72
2023/01/10 14:31:30;;;;;;;40.95;7.10;;;;;;;;;;4900687;29;20161;-72
2023/01/10 14:33:59;;;;;;;45.80;5.63;;;6.60;99.90;;;;;;4885460;29;20127;-72
2023/01/10 14:36:25;;;;;;;45.08;6.28;;;;;;;;;;4895948;29;20052;-72